Time;durP1;ratioP1;P1;durP2;ratioP2;P2;SDS_P1;SDS_P2;PMS_P1;PMS_P2;Temp;Humidity;BMP_temperature;BMP_pressure;BME280_temperature;BME280_humidity;BME280_pressure;Samples;Min_cycle;Max_cycle;Signal;HPM_P1;HPM_P2
2022/01/19 00:01:18;;;;;;;66.60;21.98;;;4.30;99.90;;;;;;5099794;28;20028;-74
2022/01/19 00:03:45;;;;;;;60.80;20.73;;;4.30;99.90;;;;;;5095754;28;20040;-74
2022/01/19 00:06:11;;;;;;;57.78;20.42;;;4.30;99.90;;;;;;5095482;28;20048;-75
2022/01/19 00:08:38;;;;;;;64.25;22.10;;;4.20;99.90;;;;;;5098477;28;20035;-75
2022/01/19 00:11:06;;;;;;;66.72;21.98;;;4.30;99.90;;;;;;5098239;28;20024;-75
2022/01/19 00:13:32;;;;;;;52.67;20.30;;;4.20;99.90;;;;;;5102111;28;20105;-74
2022/01/19 00:15:58;;;;;;;51.38;20.45;;;4.20;99.90;;;;;;5101485;28;20020;-74
2022/01/19 00:18:25;;;;;;;52.65;19.52;;;4.10;99.90;;;;;;5095491;28;20543;-74
2022/01/19 00:20:52;;;;;;;55.40;19.88;;;4.10;99.90;;;;;;5095649;28;20107;-74
2022/01/19 00:23:18;;;;;;;55.03;20.30;;;4.10;99.90;;;;;;5094691;28;20028;-74
2022/01/19 00:25:46;;;;;;;62.70;22.77;;;4.10;99.90;;;;;;5095594;28;20052;-74
2022/01/19 00:28:11;;;;;;;69.57;23.80;;;4.00;99.90;;;;;;5095374;28;20134;-75
2022/01/19 00:30:38;;;;;;;63.40;23.15;;;4.00;99.90;;;;;;5094789;28;20024;-74
2022/01/19 00:33:03;;;;;;;63.33;24.05;;;4.00;99.90;;;;;;5095574;28;20062;-74
2022/01/19 00:35:29;;;;;;;66.03;22.48;;;3.90;99.90;;;;;;5096467;28;20020;-74
2022/01/19 00:37:55;;;;;;;56.42;21.27;;;3.90;99.90;;;;;;5095232;28;20028;-75
2022/01/19 00:40:20;;;;;;;63.38;22.55;;;3.90;99.90;;;;;;5095552;28;20051;-74
2022/01/19 00:42:46;;;;;;;64.03;23.30;;;3.90;99.90;;;;;;5096240;28;20459;-75
2022/01/19 00:45:14;;;;;;;58.28;22.58;;;3.80;99.90;;;;;;5095006;28;20496;-74
2022/01/19 00:47:41;;;;;;;68.47;24.33;;;3.80;99.90;;;;;;5095943;28;20023;-72
2022/01/19 00:50:09;;;;;;;68.85;22.45;;;3.80;99.90;;;;;;5095265;28;20515;-74
2022/01/19 00:52:35;;;;;;;68.72;21.73;;;3.80;99.90;;;;;;5092867;28;20373;-74
2022/01/19 00:55:04;;;;;;;61.63;22.08;;;3.70;99.90;;;;;;5095265;28;20028;-74
2022/01/19 00:57:30;;;;;;;55.08;21.75;;;3.70;99.90;;;;;;5094677;28;20032;-74
2022/01/19 00:59:55;;;;;;;60.78;21.00;;;3.70;99.90;;;;;;5094331;28;20028;-74
2022/01/19 01:02:21;;;;;;;46.65;19.77;;;3.70;99.90;;;;;;5094596;28;20020;-74
2022/01/19 01:04:46;;;;;;;57.78;22.30;;;3.70;99.90;;;;;;5094511;28;20034;-74
2022/01/19 01:07:12;;;;;;;53.05;21.65;;;3.70;99.90;;;;;;5094188;28;20020;-74
2022/01/19 01:09:38;;;;;;;60.42;22.33;;;3.70;99.90;;;;;;5094990;28;20197;-74
2022/01/19 01:12:20;;;;;;;50.92;20.95;;;3.70;99.90;;;;;;5094390;28;20024;-74
2022/01/19 01:20:14;;;;;;;51.28;21.90;;;3.60;99.90;;;;;;5094487;28;20172;-74
2022/01/19 01:22:41;;;;;;;53.42;20.65;;;3.60;99.90;;;;;;5095251;28;20103;-74
2022/01/19 01:25:08;;;;;;;60.38;23.48;;;3.60;99.90;;;;;;5094794;28;20495;-74
2022/01/19 01:27:37;;;;;;;62.67;23.35;;;3.60;99.90;;;;;;5094845;28;20016;-74
2022/01/19 01:30:05;;;;;;;53.25;20.92;;;3.60;99.90;;;;;;5094685;28;20020;-75
2022/01/19 01:32:31;;;;;;;56.70;20.67;;;3.60;99.90;;;;;;5095271;28;20051;-74
2022/01/19 01:34:56;;;;;;;55.33;21.40;;;3.60;99.90;;;;;;5094605;28;20469;-74
2022/01/19 01:37:22;;;;;;;62.25;22.05;;;3.50;99.90;;;;;;5085736;28;20519;-74
2022/01/19 01:39:48;;;;;;;64.05;24.55;;;3.60;99.90;;;;;;5073903;28;20074;-74
2022/01/19 01:42:16;;;;;;;67.55;23.13;;;3.60;99.90;;;;;;5073373;28;20020;-72
2022/01/19 01:44:45;;;;;;;61.67;25.70;;;3.60;99.90;;;;;;5074616;28;20036;-72
2022/01/19 01:47:12;;;;;;;67.05;25.63;;;3.70;99.90;;;;;;5074157;28;20029;-72
2022/01/19 01:55:09;;;;;;;65.32;26.08;;;3.80;99.90;;;;;;5073002;28;20027;-74
2022/01/19 01:57:37;;;;;;;72.22;28.13;;;3.90;99.90;;;;;;5073742;28;20032;-74
2022/01/19 02:00:05;;;;;;;70.15;24.55;;;3.90;99.90;;;;;;5077963;28;20066;-76
2022/01/19 02:02:30;;;;;;;68.70;26.23;;;3.90;99.90;;;;;;5073113;28;20372;-74
2022/01/19 02:04:56;;;;;;;68.30;28.55;;;4.10;99.90;;;;;;5073517;28;20045;-74
2022/01/19 02:09:56;;;;;;;61.15;25.17;;;4.20;99.90;;;;;;5075184;28;20049;-75
2022/01/19 02:23:32;;;;;;;69.88;25.73;;;4.00;99.90;;;;;;5072947;28;20050;-75
2022/01/19 02:26:01;;;;;;;73.88;26.95;;;3.90;99.90;;;;;;5073084;28;20116;-74
2022/01/19 02:40:06;;;;;;;59.10;23.83;;;3.80;99.90;;;;;;5072941;28;20044;-74
2022/01/19 02:42:51;;;;;;;61.97;23.65;;;3.70;99.90;;;;;;5059636;28;20392;-74
2022/01/19 02:50:30;;;;;;;60.63;22.45;;;3.60;99.90;;;;;;5073647;28;20066;-75
2022/01/19 02:52:55;;;;;;;60.35;24.23;;;3.60;99.90;;;;;;5073305;28;20036;-74
2022/01/19 02:55:22;;;;;;;64.35;23.95;;;3.60;99.90;;;;;;5072794;28;20036;-74
2022/01/19 02:57:48;;;;;;;63.47;22.50;;;3.60;99.90;;;;;;5072553;28;20032;-74
2022/01/19 03:08:50;;;;;;;64.97;23.38;;;3.50;99.90;;;;;;5072603;28;20652;-74
2022/01/19 03:11:18;;;;;;;76.32;27.08;;;3.50;99.90;;;;;;5072744;28;20100;-74
2022/01/19 03:13:46;;;;;;;66.03;24.65;;;3.50;99.90;;;;;;5072253;28;20073;-74
2022/01/19 03:16:12;;;;;;;56.80;22.50;;;3.50;99.90;;;;;;5077153;28;20088;-75
2022/01/19 03:18:38;;;;;;;54.95;21.77;;;3.50;99.90;;;;;;5092565;28;20035;-73
2022/01/19 03:21:04;;;;;;;60.08;25.50;;;3.40;99.90;;;;;;5092129;28;20016;-73
2022/01/19 03:23:30;;;;;;;54.40;22.48;;;3.40;99.90;;;;;;5092480;28;20024;-73
2022/01/19 03:25:57;;;;;;;61.05;22.17;;;3.30;99.90;;;;;;5091666;28;20062;-74
2022/01/19 03:28:23;;;;;;;60.47;22.75;;;3.30;99.90;;;;;;5092145;28;20042;-73
2022/01/19 03:30:49;;;;;;;58.08;23.17;;;3.20;99.90;;;;;;5091898;28;20460;-73
2022/01/19 03:33:15;;;;;;;60.10;21.65;;;3.20;99.90;;;;;;5091306;28;20101;-73
2022/01/19 03:35:41;;;;;;;67.32;24.40;;;3.20;99.90;;;;;;5092026;28;20082;-73
2022/01/19 03:38:08;;;;;;;61.40;23.05;;;3.10;99.90;;;;;;5091773;28;20044;-73
2022/01/19 03:40:35;;;;;;;57.58;23.05;;;3.10;99.90;;;;;;5091338;28;20433;-74
2022/01/19 03:43:01;;;;;;;70.00;24.55;;;3.10;99.90;;;;;;5093747;28;20074;-73
2022/01/19 03:45:27;;;;;;;68.55;25.55;;;3.10;99.90;;;;;;5091749;28;20134;-74
2022/01/19 03:48:09;;;;;;;66.75;23.95;;;3.10;99.90;;;;;;5092030;28;20021;-74
2022/01/19 03:50:34;;;;;;;66.53;23.20;;;3.20;99.90;;;;;;5092611;28;20066;-74
2022/01/19 03:53:00;;;;;;;83.07;24.45;;;3.10;99.90;;;;;;5093142;28;20056;-74
2022/01/19 03:55:27;;;;;;;64.68;23.85;;;3.10;99.90;;;;;;5091919;28;20028;-73
2022/01/19 03:57:52;;;;;;;70.00;26.33;;;3.10;99.90;;;;;;5093000;28;20559;-74
2022/01/19 04:00:20;;;;;;;70.80;24.90;;;3.10;99.90;;;;;;5097273;28;20044;-76
2022/01/19 04:02:48;;;;;;;73.75;24.85;;;3.10;99.90;;;;;;5092291;28;20024;-76
2022/01/19 04:05:24;;;;;;;71.07;25.02;;;3.00;99.90;;;;;;5092155;28;20120;-74
2022/01/19 04:07:50;;;;;;;69.43;26.40;;;3.00;99.90;;;;;;5092358;28;20028;-75
2022/01/19 04:10:16;;;;;;;82.93;26.27;;;3.10;99.90;;;;;;5092833;28;20106;-74
2022/01/19 04:15:10;;;;;;;67.40;24.17;;;3.10;99.90;;;;;;5098307;28;20115;-73
2022/01/19 04:17:39;;;;;;;64.00;24.30;;;3.10;99.90;;;;;;5092440;28;20028;-74
2022/01/19 04:20:05;;;;;;;71.07;24.25;;;3.10;99.90;;;;;;5092061;28;20589;-73
2022/01/19 04:22:31;;;;;;;75.03;25.88;;;3.10;99.90;;;;;;5091586;28;20421;-73
2022/01/19 04:24:57;;;;;;;63.40;23.23;;;3.10;99.90;;;;;;5092389;28;20023;-73
2022/01/19 04:30:27;;;;;;;69.03;23.50;;;3.10;99.90;;;;;;5095449;28;20017;-74
2022/01/19 04:35:27;;;;;;;69.30;21.92;;;3.10;99.90;;;;;;5095657;28;20493;-73
2022/01/19 04:46:38;;;;;;;45.25;19.58;;;3.10;99.90;;;;;;5095441;28;20072;-74
2022/01/19 04:54:05;;;;;;;38.28;17.70;;;3.10;99.90;;;;;;5095471;28;20035;-72
2022/01/19 05:05:08;;;;;;;53.63;23.55;;;3.20;99.90;;;;;;5093251;28;20689;-74
2022/01/19 05:15:13;;;;;;;41.95;18.90;;;3.30;99.90;;;;;;5095656;28;20054;-74
2022/01/19 05:17:39;;;;;;;43.45;20.58;;;3.30;99.90;;;;;;5095414;28;20016;-73
2022/01/19 05:20:07;;;;;;;42.92;19.50;;;3.30;99.90;;;;;;5094609;28;20027;-73
2022/01/19 05:22:32;;;;;;;40.22;19.17;;;3.30;99.90;;;;;;5094690;28;20024;-73
2022/01/19 05:24:58;;;;;;;41.78;19.58;;;3.30;99.90;;;;;;5094845;28;20028;-73
2022/01/19 05:27:24;;;;;;;49.85;20.20;;;3.30;99.90;;;;;;5093990;28;20116;-73
2022/01/19 05:29:50;;;;;;;47.00;21.50;;;3.40;99.90;;;;;;5094990;28;20093;-74
2022/01/19 05:32:16;;;;;;;53.08;21.80;;;3.40;99.90;;;;;;5094431;28;20021;-73
2022/01/19 05:34:42;;;;;;;62.67;24.92;;;3.40;99.90;;;;;;5094746;28;20032;-73
2022/01/19 05:37:08;;;;;;;58.15;26.00;;;3.50;99.90;;;;;;5094694;28;20103;-73
2022/01/19 05:39:33;;;;;;;55.60;24.13;;;3.60;99.90;;;;;;5092924;28;20090;-72
2022/01/19 05:41:59;;;;;;;56.75;23.55;;;3.60;99.90;;;;;;5094907;28;20065;-74
2022/01/19 05:44:24;;;;;;;69.78;25.17;;;3.70;99.90;;;;;;5095288;28;20023;-74
2022/01/19 05:46:50;;;;;;;61.90;25.05;;;3.60;99.90;;;;;;5093884;28;20031;-74
2022/01/19 05:49:16;;;;;;;74.68;25.90;;;3.70;99.90;;;;;;5094412;28;20028;-75
2022/01/19 05:51:41;;;;;;;70.35;26.08;;;3.80;99.90;;;;;;5094702;28;20054;-74
2022/01/19 05:54:07;;;;;;;72.85;26.63;;;3.80;99.90;;;;;;5093154;28;20059;-74
2022/01/19 05:56:33;;;;;;;73.35;26.77;;;3.80;99.90;;;;;;5094246;28;20033;-74
2022/01/19 05:58:58;;;;;;;63.75;26.83;;;3.80;99.90;;;;;;5099450;28;20040;-75
2022/01/19 06:01:24;;;;;;;67.20;27.90;;;3.80;99.90;;;;;;5096538;28;20464;-75
2022/01/19 06:03:56;;;;;;;69.13;25.77;;;3.90;99.90;;;;;;5094303;28;20032;-74
2022/01/19 06:06:21;;;;;;;68.30;27.98;;;3.90;99.90;;;;;;5093368;28;20058;-75
2022/01/19 06:08:59;;;;;;;70.28;26.40;;;3.90;99.90;;;;;;5093759;28;20119;-76
2022/01/19 06:11:24;;;;;;;70.10;27.63;;;3.90;99.90;;;;;;5078733;28;20068;-75
2022/01/19 06:13:53;;;;;;;68.70;27.60;;;3.90;99.90;;;;;;5089905;28;20069;-75
2022/01/19 06:16:19;;;;;;;69.03;26.90;;;3.90;99.90;;;;;;5092197;28;20028;-75
2022/01/19 06:18:44;;;;;;;68.70;27.75;;;3.90;99.90;;;;;;5092623;28;20059;-75
2022/01/19 06:21:10;;;;;;;67.63;26.30;;;3.90;99.90;;;;;;5091796;28;20077;-75
2022/01/19 06:23:39;;;;;;;57.38;23.40;;;3.90;99.90;;;;;;5090316;28;20020;-74
2022/01/19 06:26:05;;;;;;;67.05;24.30;;;3.90;99.90;;;;;;5090741;28;20024;-75
2022/01/19 06:28:31;;;;;;;54.15;23.05;;;3.90;99.90;;;;;;5090897;28;20027;-75
2022/01/19 06:30:57;;;;;;;67.95;25.60;;;3.90;99.90;;;;;;5092634;28;20028;-75
2022/01/19 06:33:22;;;;;;;70.82;26.40;;;3.90;99.90;;;;;;5090292;28;20114;-74
2022/01/19 06:35:53;;;;;;;63.20;26.45;;;3.90;99.90;;;;;;5090198;28;20020;-74
2022/01/19 06:38:18;;;;;;;51.88;24.25;;;4.00;99.90;;;;;;5074119;28;20127;-74
2022/01/19 06:40:44;;;;;;;69.45;27.38;;;3.90;99.90;;;;;;5071776;28;20418;-75
2022/01/19 06:43:09;;;;;;;68.55;29.25;;;4.00;99.90;;;;;;5070247;28;20028;-75
2022/01/19 06:45:35;;;;;;;64.05;27.00;;;4.00;99.90;;;;;;5073415;28;20017;-74
2022/01/19 06:48:00;;;;;;;70.40;26.48;;;4.00;99.90;;;;;;5071477;28;20349;-74
2022/01/19 06:50:28;;;;;;;65.22;27.75;;;4.00;99.90;;;;;;5070629;28;20025;-74
2022/01/19 06:52:53;;;;;;;62.90;26.60;;;4.00;99.90;;;;;;5072211;28;20372;-74
2022/01/19 06:55:19;;;;;;;64.25;25.33;;;4.00;99.90;;;;;;5072427;28;20040;-75
2022/01/19 06:57:45;;;;;;;62.67;26.88;;;4.00;99.90;;;;;;5080292;28;20055;-74
2022/01/19 07:00:12;;;;;;;62.42;28.15;;;4.00;99.90;;;;;;5077648;28;20029;-75
2022/01/19 07:02:38;;;;;;;71.05;29.25;;;4.00;99.90;;;;;;5072145;28;20025;-74
2022/01/19 07:05:05;;;;;;;66.65;27.98;;;4.10;99.90;;;;;;5080940;28;20025;-75
2022/01/19 07:07:31;;;;;;;67.13;29.33;;;4.20;99.90;;;;;;5078466;28;20024;-74
2022/01/19 07:09:57;;;;;;;85.68;31.05;;;4.20;99.90;;;;;;5084948;28;20028;-74
2022/01/19 07:12:26;;;;;;;74.18;28.20;;;4.30;99.90;;;;;;5091807;28;20016;-75
2022/01/19 07:14:51;;;;;;;68.55;28.98;;;4.30;99.90;;;;;;5087174;28;20059;-74
2022/01/19 07:17:17;;;;;;;74.55;29.80;;;4.30;99.90;;;;;;5071472;28;20468;-74
2022/01/19 07:19:42;;;;;;;65.93;28.75;;;4.30;99.90;;;;;;5070846;28;20032;-73
2022/01/19 07:22:08;;;;;;;75.55;28.63;;;4.30;99.90;;;;;;5070943;28;20099;-74
2022/01/19 07:24:33;;;;;;;67.68;28.33;;;4.30;99.90;;;;;;5071447;28;20415;-73
2022/01/19 07:26:59;;;;;;;74.70;30.60;;;4.30;99.90;;;;;;5083035;28;20104;-73
2022/01/19 07:29:25;;;;;;;76.50;30.42;;;4.30;99.90;;;;;;5088887;28;20020;-74
2022/01/19 07:31:55;;;;;;;72.38;30.27;;;4.30;99.90;;;;;;5091107;28;20012;-74
2022/01/19 07:34:20;;;;;;;63.13;27.38;;;4.30;99.90;;;;;;5088802;28;20036;-75
2022/01/19 07:36:46;;;;;;;65.85;29.00;;;4.30;99.90;;;;;;5090731;28;20074;-74
2022/01/19 07:39:12;;;;;;;56.20;25.15;;;4.30;99.90;;;;;;5086500;28;20040;-75
2022/01/19 07:41:38;;;;;;;69.07;28.27;;;4.30;99.90;;;;;;5075542;28;20051;-75
2022/01/19 07:44:06;;;;;;;67.32;28.08;;;4.30;99.90;;;;;;5072227;28;20655;-75
2022/01/19 07:46:31;;;;;;;63.42;27.98;;;4.30;99.90;;;;;;5080044;28;20430;-75
2022/01/19 07:48:57;;;;;;;63.90;28.60;;;4.20;99.90;;;;;;5073094;28;20032;-75
2022/01/19 07:51:22;;;;;;;66.07;29.30;;;4.30;99.90;;;;;;5072113;28;20073;-75
2022/01/19 07:53:49;;;;;;;68.32;28.70;;;4.30;99.90;;;;;;5083406;28;20024;-75
2022/01/19 07:56:15;;;;;;;55.28;25.27;;;4.30;99.90;;;;;;5074192;28;20028;-76
2022/01/19 07:58:40;;;;;;;58.58;26.90;;;4.30;99.90;;;;;;5095847;28;20176;-75
2022/01/19 08:01:06;;;;;;;68.55;29.58;;;4.40;99.90;;;;;;5087285;28;20118;-75
2022/01/19 08:03:31;;;;;;;57.53;28.08;;;4.40;99.90;;;;;;5075131;28;20025;-75
2022/01/19 08:05:57;;;;;;;67.40;27.42;;;4.40;99.90;;;;;;5075293;28;20046;-75
2022/01/19 08:08:23;;;;;;;71.35;27.40;;;4.30;99.90;;;;;;5075200;28;20024;-76
2022/01/19 08:10:51;;;;;;;72.72;26.77;;;4.40;99.90;;;;;;5077876;28;20111;-76
2022/01/19 08:13:23;;;;;;;59.65;27.20;;;4.30;99.90;;;;;;5077266;28;20036;-77
2022/01/19 08:15:49;;;;;;;68.85;28.23;;;4.40;99.90;;;;;;5076394;28;20056;-77
2022/01/19 08:18:15;;;;;;;62.63;28.55;;;4.40;99.90;;;;;;5074963;28;20056;-75
2022/01/19 08:20:43;;;;;;;58.10;27.52;;;4.30;99.90;;;;;;5075388;28;20430;-76
2022/01/19 08:23:09;;;;;;;64.05;26.98;;;4.30;99.90;;;;;;5074200;28;20037;-76
2022/01/19 08:25:34;;;;;;;61.03;26.92;;;4.40;99.90;;;;;;5075166;28;20538;-75
2022/01/19 08:28:00;;;;;;;63.33;27.67;;;4.30;99.90;;;;;;5075999;28;20029;-74
2022/01/19 08:30:26;;;;;;;67.75;28.38;;;4.40;99.90;;;;;;5074404;28;20078;-77
2022/01/19 08:32:51;;;;;;;62.72;27.20;;;4.30;99.90;;;;;;5075126;28;20025;-74
2022/01/19 08:35:20;;;;;;;54.17;26.23;;;4.40;99.90;;;;;;5074515;28;20020;-74
2022/01/19 08:37:46;;;;;;;61.45;28.08;;;4.40;99.90;;;;;;5075586;28;20032;-72
2022/01/19 08:40:13;;;;;;;62.30;26.65;;;4.40;99.90;;;;;;5075035;28;20127;-74
2022/01/19 08:42:38;;;;;;;66.43;26.88;;;4.40;99.90;;;;;;5074320;28;20040;-75
2022/01/19 08:45:07;;;;;;;69.10;29.45;;;4.50;99.90;;;;;;5074660;28;20063;-78
2022/01/19 08:47:35;;;;;;;59.40;26.92;;;4.50;99.90;;;;;;5074608;28;20035;-76
2022/01/19 08:50:01;;;;;;;62.95;26.92;;;4.50;99.90;;;;;;5074349;28;20021;-76
2022/01/19 08:52:26;;;;;;;65.72;27.23;;;4.50;99.90;;;;;;5074904;28;20039;-76
2022/01/19 08:54:52;;;;;;;68.72;27.23;;;4.50;99.90;;;;;;5075935;28;20024;-75
2022/01/19 08:57:21;;;;;;;62.83;27.92;;;4.60;99.90;;;;;;5074260;28;20036;-75
2022/01/19 08:59:46;;;;;;;57.50;27.88;;;4.60;99.90;;;;;;5074607;28;20136;-75
2022/01/19 09:02:12;;;;;;;58.15;25.88;;;4.60;99.90;;;;;;5074438;28;20372;-75
2022/01/19 09:04:38;;;;;;;71.22;28.33;;;4.50;99.90;;;;;;5085662;28;20086;-75
2022/01/19 09:07:03;;;;;;;71.68;29.02;;;4.60;99.90;;;;;;5077142;28;20040;-75
2022/01/19 09:09:29;;;;;;;77.55;28.05;;;4.60;99.90;;;;;;5091880;28;20089;-74
2022/01/19 09:11:54;;;;;;;76.78;28.52;;;4.70;99.90;;;;;;5094512;28;20047;-75
2022/01/19 09:14:20;;;;;;;60.67;28.13;;;4.70;99.90;;;;;;5093524;28;20085;-77
2022/01/19 09:16:49;;;;;;;70.25;28.55;;;4.70;99.90;;;;;;5095488;28;20032;-77
2022/01/19 09:19:16;;;;;;;74.82;28.30;;;4.80;99.90;;;;;;5094497;28;20043;-77
2022/01/19 09:21:42;;;;;;;63.00;26.77;;;4.80;99.90;;;;;;5095639;28;20024;-77
2022/01/19 09:24:09;;;;;;;65.90;27.70;;;4.80;99.90;;;;;;5095332;28;20184;-78
2022/01/19 09:26:35;;;;;;;64.50;28.77;;;4.80;99.90;;;;;;5094698;28;20085;-77
2022/01/19 09:29:00;;;;;;;67.45;28.45;;;4.80;99.90;;;;;;5095289;28;20478;-77
2022/01/19 09:31:26;;;;;;;58.58;27.27;;;4.90;99.90;;;;;;5094531;28;20439;-77
2022/01/19 09:33:56;;;;;;;60.25;27.20;;;4.00;99.90;;;;;;5094942;28;20024;-78
2022/01/19 09:36:31;;;;;;;60.03;26.58;;;4.90;99.90;;;;;;5080995;28;20024;-77
2022/01/19 09:38:57;;;;;;;61.22;26.50;;;4.80;99.90;;;;;;5074526;28;20488;-78
2022/01/19 09:41:24;;;;;;;55.25;25.10;;;4.80;99.90;;;;;;5077451;28;20060;-78
2022/01/19 09:43:49;;;;;;;52.58;24.77;;;4.90;99.90;;;;;;5087647;28;20028;-77
2022/01/19 09:46:15;;;;;;;56.40;26.88;;;5.00;99.90;;;;;;5091825;28;20020;-77
2022/01/19 09:48:40;;;;;;;54.05;24.98;;;5.00;99.90;;;;;;5087847;28;20021;-77
2022/01/19 09:51:06;;;;;;;56.88;25.10;;;4.90;99.90;;;;;;5092252;28;20052;-77
2022/01/19 09:53:32;;;;;;;56.90;24.40;;;5.00;99.90;;;;;;5090516;28;20622;-78
2022/01/19 09:55:59;;;;;;;51.53;24.20;;;5.00;99.90;;;;;;5087173;28;20024;-78
2022/01/19 09:58:24;;;;;;;50.33;24.85;;;4.90;99.90;;;;;;5091235;28;20377;-78
2022/01/19 10:00:51;;;;;;;52.92;23.48;;;4.90;99.90;;;;;;5091541;28;20039;-78
2022/01/19 10:03:26;;;;;;;49.47;24.23;;;4.90;99.90;;;;;;5091139;28;20040;-77
2022/01/19 10:05:55;;;;;;;58.63;24.40;;;5.00;99.90;;;;;;5091840;28;20104;-78
2022/01/19 10:08:42;;;;;;;47.60;23.67;;;4.90;99.90;;;;;;5090455;28;20097;-78
2022/01/19 10:11:21;;;;;;;54.08;24.05;;;5.00;99.90;;;;;;5089597;28;20032;-77
2022/01/19 10:17:03;;;;;;;54.33;24.98;;;5.00;99.90;;;;;;5092562;28;20043;-78
2022/01/19 10:19:36;;;;;;;60.35;26.08;;;5.00;99.90;;;;;;5092566;28;20436;-78
2022/01/19 10:22:07;;;;;;;63.15;28.23;;;5.00;99.90;;;;;;5089531;28;20073;-78
2022/01/19 10:24:37;;;;;;;57.08;25.88;;;5.10;99.90;;;;;;5093366;28;20024;-77
2022/01/19 10:27:37;;;;;;;51.95;24.92;;;5.00;99.90;;;;;;5092366;28;20032;-78
2022/01/19 10:30:03;;;;;;;49.40;24.35;;;5.10;99.90;;;;;;5088073;28;20035;-77
2022/01/19 10:32:41;;;;;;;57.78;25.58;;;5.10;99.90;;;;;;5091803;28;20020;-78
2022/01/19 10:35:30;;;;;;;59.30;26.42;;;5.10;99.90;;;;;;5091680;28;20099;-77
2022/01/19 10:38:15;;;;;;;46.67;25.30;;;5.20;99.90;;;;;;5094294;28;20054;-78
2022/01/19 10:41:02;;;;;;;50.90;24.88;;;5.20;99.90;;;;;;5092634;28;20020;-78
2022/01/19 10:43:43;;;;;;;54.78;25.15;;;5.30;99.90;;;;;;5091332;28;20032;-78
2022/01/19 10:46:34;;;;;;;60.75;28.15;;;5.30;99.90;;;;;;5092772;28;20384;-76
2022/01/19 10:49:10;;;;;;;54.92;26.30;;;5.30;99.90;;;;;;5091349;28;20031;-78
2022/01/19 10:51:47;;;;;;;61.33;25.05;;;5.30;99.90;;;;;;5088855;28;20039;-77
2022/01/19 10:54:22;;;;;;;53.60;26.73;;;5.30;99.90;;;;;;5090111;28;20081;-77
2022/01/19 10:56:57;;;;;;;57.45;27.75;;;5.30;99.90;;;;;;5092308;28;20077;-78
2022/01/19 10:59:28;;;;;;;59.10;27.42;;;5.30;99.90;;;;;;5092270;28;20048;-77
2022/01/19 11:01:56;;;;;;;55.25;27.55;;;5.30;99.90;;;;;;5091502;28;20053;-77
2022/01/19 11:04:30;;;;;;;57.50;26.85;;;5.40;99.90;;;;;;5090281;28;20035;-77
2022/01/19 11:07:04;;;;;;;51.70;27.25;;;5.40;99.90;;;;;;5090905;28;20055;-78
2022/01/19 11:09:35;;;;;;;56.20;26.45;;;5.50;99.90;;;;;;5088868;28;20059;-77
2022/01/19 11:12:06;;;;;;;60.97;27.15;;;5.50;99.90;;;;;;5087145;28;20357;-78
2022/01/19 11:14:34;;;;;;;55.65;26.55;;;5.60;99.90;;;;;;5090663;28;20483;-78
2022/01/19 11:17:00;;;;;;;50.83;25.05;;;5.70;99.90;;;;;;5089606;28;20032;-77
2022/01/19 11:19:26;;;;;;;52.30;25.17;;;5.70;99.90;;;;;;5089979;28;20058;-77
2022/01/19 11:22:10;;;;;;;50.50;25.52;;;5.70;99.90;;;;;;5090557;28;20421;-77
2022/01/19 11:24:41;;;;;;;56.30;27.27;;;5.70;99.90;;;;;;5088908;28;20034;-77
2022/01/19 11:27:08;;;;;;;49.15;25.80;;;5.90;99.90;;;;;;5088742;28;20020;-76
2022/01/19 11:29:34;;;;;;;48.72;27.08;;;5.90;99.90;;;;;;5090527;28;20535;-76
2022/01/19 11:32:13;;;;;;;51.78;25.90;;;6.00;99.90;;;;;;5089365;28;20055;-77
2022/01/19 11:34:51;;;;;;;52.33;26.88;;;6.10;99.90;;;;;;5090366;28;20123;-76
2022/01/19 11:37:34;;;;;;;49.90;26.00;;;6.20;99.90;;;;;;5089458;28;20036;-76
2022/01/19 11:40:12;;;;;;;49.15;25.45;;;6.20;99.90;;;;;;5089560;28;20124;-76
2022/01/19 11:42:39;;;;;;;51.90;25.45;;;6.30;99.90;;;;;;5087765;28;20032;-77
2022/01/19 11:45:08;;;;;;;53.10;27.48;;;6.40;99.90;;;;;;5089363;28;20032;-77
2022/01/19 11:47:34;;;;;;;50.92;24.85;;;6.40;99.90;;;;;;5090232;28;20043;-76
2022/01/19 11:49:59;;;;;;;48.58;24.42;;;6.40;99.90;;;;;;5089859;28;20036;-76
2022/01/19 11:52:35;;;;;;;50.53;24.65;;;6.50;99.90;;;;;;5087075;28;20620;-76
2022/01/19 11:55:15;;;;;;;41.38;23.55;;;6.50;99.90;;;;;;5089721;28;20028;-76
2022/01/19 11:57:42;;;;;;;50.17;25.52;;;6.60;99.90;;;;;;5087463;28;20081;-76
2022/01/19 12:00:31;;;;;;;48.78;25.15;;;6.60;99.90;;;;;;5096001;28;20047;-76
2022/01/19 12:02:59;;;;;;;42.05;22.52;;;6.60;99.90;;;;;;5083233;28;20504;-76
2022/01/19 12:05:29;;;;;;;54.05;25.75;;;6.60;99.90;;;;;;5085437;28;20097;-76
2022/01/19 12:08:01;;;;;;;49.75;24.02;;;6.60;99.90;;;;;;5071989;28;20480;-75
2022/01/19 12:10:38;;;;;;;49.60;24.17;;;6.70;99.90;;;;;;5072420;28;20032;-76
2022/01/19 12:19:04;;;;;;;52.90;26.90;;;6.90;99.90;;;;;;5071551;28;20032;-75
2022/01/19 12:21:32;;;;;;;42.78;23.95;;;6.90;99.90;;;;;;5071049;28;20128;-76
2022/01/19 12:24:26;;;;;;;50.40;24.92;;;6.90;99.90;;;;;;5070722;28;20099;-74
2022/01/19 12:26:58;;;;;;;51.47;23.27;;;6.80;99.90;;;;;;5071482;28;20067;-74
2022/01/19 12:29:33;;;;;;;52.47;24.35;;;6.80;99.90;;;;;;5070861;28;20104;-74
2022/01/19 12:32:00;;;;;;;54.80;27.30;;;6.70;99.90;;;;;;5071689;28;20048;-75
2022/01/19 12:34:26;;;;;;;51.75;24.83;;;6.70;99.90;;;;;;5070576;28;20032;-74
2022/01/19 12:37:00;;;;;;;51.33;25.92;;;6.70;99.90;;;;;;5071266;28;20035;-74
2022/01/19 12:39:32;;;;;;;45.65;25.17;;;6.60;99.90;;;;;;5071429;28;20043;-74
2022/01/19 12:42:14;;;;;;;52.05;25.20;;;6.60;99.90;;;;;;5071048;28;20021;-74
2022/01/19 12:44:42;;;;;;;49.25;26.83;;;6.60;99.90;;;;;;5071883;28;20472;-74
2022/01/19 12:47:28;;;;;;;54.20;26.20;;;6.70;99.90;;;;;;5071743;28;20475;-74
2022/01/19 12:49:55;;;;;;;47.67;25.98;;;6.70;99.90;;;;;;5074792;28;20032;-74
2022/01/19 12:52:23;;;;;;;48.75;24.60;;;6.60;99.90;;;;;;5075623;28;20021;-74
2022/01/19 12:54:50;;;;;;;51.72;23.35;;;6.60;99.90;;;;;;5075372;28;20085;-74
2022/01/19 12:57:16;;;;;;;47.60;25.23;;;6.50;99.90;;;;;;5074144;28;20033;-75
2022/01/19 12:59:44;;;;;;;48.05;25.70;;;6.50;99.90;;;;;;5075421;28;20036;-74
2022/01/19 13:02:14;;;;;;;49.15;25.13;;;6.50;99.90;;;;;;5074883;28;20029;-74
2022/01/19 13:04:41;;;;;;;45.87;20.93;;;6.50;99.90;;;;;;5076397;28;20078;-74
2022/01/19 13:07:17;;;;;;;49.38;26.50;;;6.50;99.90;;;;;;5074842;28;20126;-74
2022/01/19 13:10:04;;;;;;;48.75;24.95;;;6.50;99.90;;;;;;5074681;28;20066;-75
2022/01/19 13:12:50;;;;;;;52.78;26.15;;;6.50;99.90;;;;;;5076876;28;20031;-74
2022/01/19 13:15:17;;;;;;;55.25;26.35;;;6.50;99.90;;;;;;5078669;28;20029;-74
2022/01/19 13:17:45;;;;;;;49.83;24.75;;;6.50;99.90;;;;;;5079937;28;20043;-75
2022/01/19 13:20:15;;;;;;;47.95;25.25;;;6.50;99.90;;;;;;5075352;28;20046;-76
2022/01/19 13:22:46;;;;;;;51.03;25.48;;;6.60;99.90;;;;;;5075317;28;20032;-76
2022/01/19 13:25:22;;;;;;;49.00;25.35;;;6.60;99.90;;;;;;5074433;28;20088;-76
2022/01/19 13:27:50;;;;;;;49.75;25.20;;;6.60;99.90;;;;;;5075187;28;20024;-74
2022/01/19 13:30:17;;;;;;;48.33;24.38;;;6.60;99.90;;;;;;5076637;28;20476;-76
2022/01/19 13:32:43;;;;;;;58.65;24.67;;;6.60;99.90;;;;;;5074447;28;20039;-76
2022/01/19 13:35:10;;;;;;;48.50;22.95;;;6.60;99.90;;;;;;5074515;28;20480;-75
2022/01/19 13:37:45;;;;;;;42.30;23.00;;;6.60;99.90;;;;;;5074224;28;20082;-76
2022/01/19 13:40:18;;;;;;;45.22;20.77;;;6.60;99.90;;;;;;5074423;28;20039;-75
2022/01/19 13:42:48;;;;;;;41.85;19.67;;;6.70;99.90;;;;;;5074528;28;20107;-76
2022/01/19 13:48:05;;;;;;;47.83;21.35;;;6.60;99.90;;;;;;5082088;28;20017;-77
2022/01/19 13:50:33;;;;;;;44.38;19.98;;;6.60;99.90;;;;;;5092241;28;20051;-77
2022/01/19 13:53:00;;;;;;;41.90;20.40;;;6.60;99.90;;;;;;5090146;28;20046;-76
2022/01/19 13:55:26;;;;;;;43.75;21.17;;;6.60;99.90;;;;;;5092882;28;20035;-75
2022/01/19 13:58:13;;;;;;;43.60;19.63;;;6.60;99.90;;;;;;5078299;28;20023;-77
2022/01/19 14:00:54;;;;;;;40.63;19.88;;;6.60;99.90;;;;;;5080321;28;20020;-77
2022/01/19 14:03:21;;;;;;;40.28;18.27;;;6.60;99.90;;;;;;5089039;28;20114;-77
2022/01/19 14:05:51;;;;;;;38.90;18.50;;;6.60;99.90;;;;;;5092150;28;20044;-76
2022/01/19 14:08:33;;;;;;;36.92;18.52;;;6.60;99.90;;;;;;5088288;28;20024;-76
2022/01/19 14:11:00;;;;;;;42.22;20.00;;;6.60;99.90;;;;;;5078922;28;20584;-76
2022/01/19 14:13:30;;;;;;;42.53;17.80;;;6.60;99.90;;;;;;5081418;28;20034;-77
2022/01/19 14:16:15;;;;;;;;;;;6.60;99.90;;;;;;5094897;28;20020;-77
2022/01/19 14:18:40;;;;;;;49.13;20.10;;;6.60;99.90;;;;;;5091198;28;20018;-76
2022/01/19 14:21:08;;;;;;;41.92;16.92;;;6.60;99.90;;;;;;5088775;28;20098;-76
2022/01/19 14:23:34;;;;;;;46.20;17.58;;;6.60;99.90;;;;;;5072690;28;20044;-76
2022/01/19 14:26:11;;;;;;;39.72;18.30;;;6.70;99.90;;;;;;5088984;28;20509;-76